sensor_id;sensor_type;location;lat;lon;timestamp;P1;durP1;ratioP1;P2;durP2;ratioP2
9700;SDS011;4889;48.620;7.892;2023-05-10T00:01:10;0.50;;;0.20;;
9700;SDS011;4889;48.620;7.892;2023-05-10T00:03:35;1.03;;;1.03;;
9700;SDS011;4889;48.620;7.892;2023-05-10T00:06:00;0.50;;;0.20;;
9700;SDS011;4889;48.620;7.892;2023-05-10T00:08:25;0.50;;;0.20;;
9700;SDS011;4889;48.620;7.892;2023-05-10T00:10:51;0.50;;;0.20;;
9700;SDS011;4889;48.620;7.892;2023-05-10T00:13:16;0.50;;;0.20;;
9700;SDS011;4889;48.620;7.892;2023-05-10T00:15:42;0.50;;;0.20;;
9700;SDS011;4889;48.620;7.892;2023-05-10T00:18:07;0.50;;;0.20;;
9700;SDS011;4889;48.620;7.892;2023-05-10T00:20:32;0.50;;;0.20;;
9700;SDS011;4889;48.620;7.892;2023-05-10T00:22:57;0.50;;;0.20;;
9700;SDS011;4889;48.620;7.892;2023-05-10T00:25:23;0.60;;;0.30;;
9700;SDS011;4889;48.620;7.892;2023-05-10T00:27:48;0.50;;;0.30;;
9700;SDS011;4889;48.620;7.892;2023-05-10T00:30:14;0.50;;;0.23;;
9700;SDS011;4889;48.620;7.892;2023-05-10T00:32:39;0.50;;;0.20;;
9700;SDS011;4889;48.620;7.892;2023-05-10T00:35:05;0.50;;;0.20;;
9700;SDS011;4889;48.620;7.892;2023-05-10T00:37:30;0.50;;;0.20;;
9700;SDS011;4889;48.620;7.892;2023-05-10T00:39:55;0.87;;;0.30;;
9700;SDS011;4889;48.620;7.892;2023-05-10T00:42:21;0.50;;;0.20;;
9700;SDS011;4889;48.620;7.892;2023-05-10T00:44:46;0.50;;;0.30;;
9700;SDS011;4889;48.620;7.892;2023-05-10T00:47:11;0.50;;;0.30;;
9700;SDS011;4889;48.620;7.892;2023-05-10T00:49:37;0.50;;;0.20;;
9700;SDS011;4889;48.620;7.892;2023-05-10T00:52:02;0.50;;;0.20;;
9700;SDS011;4889;48.620;7.892;2023-05-10T00:54:28;0.50;;;0.20;;
9700;SDS011;4889;48.620;7.892;2023-05-10T00:56:53;0.50;;;0.20;;
9700;SDS011;4889;48.620;7.892;2023-05-10T00:59:18;0.50;;;0.30;;
9700;SDS011;4889;48.620;7.892;2023-05-10T01:01:44;0.50;;;0.20;;
9700;SDS011;4889;48.620;7.892;2023-05-10T01:04:10;0.50;;;0.30;;
9700;SDS011;4889;48.620;7.892;2023-05-10T01:06:37;0.50;;;0.20;;
9700;SDS011;4889;48.620;7.892;2023-05-10T01:09:02;0.50;;;0.20;;
9700;SDS011;4889;48.620;7.892;2023-05-10T01:11:28;0.50;;;0.20;;
9700;SDS011;4889;48.620;7.892;2023-05-10T01:13:56;0.50;;;0.20;;
9700;SDS011;4889;48.620;7.892;2023-05-10T01:16:23;0.50;;;0.20;;
9700;SDS011;4889;48.620;7.892;2023-05-10T01:18:48;0.50;;;0.20;;
9700;SDS011;4889;48.620;7.892;2023-05-10T01:21:19;0.50;;;0.20;;
9700;SDS011;4889;48.620;7.892;2023-05-10T01:23:56;0.50;;;0.20;;
9700;SDS011;4889;48.620;7.892;2023-05-10T01:34:08;0.50;;;0.20;;
9700;SDS011;4889;48.620;7.892;2023-05-10T01:36:45;0.50;;;0.20;;
9700;SDS011;4889;48.620;7.892;2023-05-10T01:39:17;0.50;;;0.20;;
9700;SDS011;4889;48.620;7.892;2023-05-10T01:41:52;0.50;;;0.20;;
9700;SDS011;4889;48.620;7.892;2023-05-10T01:44:31;0.50;;;0.20;;
9700;SDS011;4889;48.620;7.892;2023-05-10T01:49:33;0.50;;;0.20;;
9700;SDS011;4889;48.620;7.892;2023-05-10T01:52:00;0.50;;;0.20;;
9700;SDS011;4889;48.620;7.892;2023-05-10T01:54:26;0.50;;;0.20;;
9700;SDS011;4889;48.620;7.892;2023-05-10T01:56:57;0.50;;;0.20;;
9700;SDS011;4889;48.620;7.892;2023-05-10T01:59:25;0.50;;;0.30;;
9700;SDS011;4889;48.620;7.892;2023-05-10T02:01:52;0.60;;;0.40;;
9700;SDS011;4889;48.620;7.892;2023-05-10T02:04:18;0.50;;;0.20;;
9700;SDS011;4889;48.620;7.892;2023-05-10T02:06:44;0.50;;;0.30;;
9700;SDS011;4889;48.620;7.892;2023-05-10T02:09:10;0.50;;;0.20;;
9700;SDS011;4889;48.620;7.892;2023-05-10T02:11:37;0.50;;;0.30;;
9700;SDS011;4889;48.620;7.892;2023-05-10T02:14:02;0.50;;;0.20;;
9700;SDS011;4889;48.620;7.892;2023-05-10T02:16:28;0.50;;;0.20;;
9700;SDS011;4889;48.620;7.892;2023-05-10T02:18:55;0.50;;;0.20;;
9700;SDS011;4889;48.620;7.892;2023-05-10T02:21:22;0.50;;;0.20;;
9700;SDS011;4889;48.620;7.892;2023-05-10T02:23:48;0.50;;;0.20;;
9700;SDS011;4889;48.620;7.892;2023-05-10T02:26:15;0.50;;;0.20;;
9700;SDS011;4889;48.620;7.892;2023-05-10T02:28:41;0.50;;;0.20;;
9700;SDS011;4889;48.620;7.892;2023-05-10T02:31:07;0.50;;;0.20;;
9700;SDS011;4889;48.620;7.892;2023-05-10T02:33:34;0.50;;;0.20;;
9700;SDS011;4889;48.620;7.892;2023-05-10T02:36:00;0.50;;;0.20;;
9700;SDS011;4889;48.620;7.892;2023-05-10T02:38:26;0.50;;;0.20;;
9700;SDS011;4889;48.620;7.892;2023-05-10T02:40:51;0.50;;;0.20;;
9700;SDS011;4889;48.620;7.892;2023-05-10T02:43:17;0.50;;;0.20;;
9700;SDS011;4889;48.620;7.892;2023-05-10T02:45:43;0.50;;;0.30;;
9700;SDS011;4889;48.620;7.892;2023-05-10T02:48:11;0.50;;;0.20;;
9700;SDS011;4889;48.620;7.892;2023-05-10T02:50:37;0.50;;;0.20;;
9700;SDS011;4889;48.620;7.892;2023-05-10T02:53:06;0.50;;;0.20;;
9700;SDS011;4889;48.620;7.892;2023-05-10T02:55:37;0.50;;;0.30;;
9700;SDS011;4889;48.620;7.892;2023-05-10T02:58:03;0.50;;;0.30;;
9700;SDS011;4889;48.620;7.892;2023-05-10T03:00:29;0.80;;;0.47;;
9700;SDS011;4889;48.620;7.892;2023-05-10T03:02:54;0.60;;;0.30;;
9700;SDS011;4889;48.620;7.892;2023-05-10T03:05:20;0.60;;;0.30;;
9700;SDS011;4889;48.620;7.892;2023-05-10T03:07:45;0.60;;;0.30;;
9700;SDS011;4889;48.620;7.892;2023-05-10T03:10:11;0.50;;;0.30;;
9700;SDS011;4889;48.620;7.892;2023-05-10T03:12:42;0.50;;;0.20;;
9700;SDS011;4889;48.620;7.892;2023-05-10T03:15:11;0.50;;;0.30;;
9700;SDS011;4889;48.620;7.892;2023-05-10T03:17:49;0.50;;;0.20;;
9700;SDS011;4889;48.620;7.892;2023-05-10T03:20:29;0.50;;;0.20;;
9700;SDS011;4889;48.620;7.892;2023-05-10T03:23:00;0.50;;;0.20;;
9700;SDS011;4889;48.620;7.892;2023-05-10T03:25:27;0.50;;;0.20;;
9700;SDS011;4889;48.620;7.892;2023-05-10T03:27:54;0.50;;;0.20;;
9700;SDS011;4889;48.620;7.892;2023-05-10T03:30:21;0.50;;;0.20;;
9700;SDS011;4889;48.620;7.892;2023-05-10T03:32:46;0.50;;;0.20;;
9700;SDS011;4889;48.620;7.892;2023-05-10T03:35:12;0.50;;;0.20;;
9700;SDS011;4889;48.620;7.892;2023-05-10T03:37:38;0.50;;;0.20;;
9700;SDS011;4889;48.620;7.892;2023-05-10T03:40:03;0.50;;;0.30;;
9700;SDS011;4889;48.620;7.892;2023-05-10T03:42:29;0.50;;;0.20;;
9700;SDS011;4889;48.620;7.892;2023-05-10T03:44:54;0.50;;;0.20;;
9700;SDS011;4889;48.620;7.892;2023-05-10T03:47:19;0.50;;;0.20;;
9700;SDS011;4889;48.620;7.892;2023-05-10T03:49:45;0.50;;;0.20;;
9700;SDS011;4889;48.620;7.892;2023-05-10T03:52:10;0.50;;;0.20;;
9700;SDS011;4889;48.620;7.892;2023-05-10T03:54:35;0.60;;;0.50;;
9700;SDS011;4889;48.620;7.892;2023-05-10T03:57:01;0.50;;;0.20;;
9700;SDS011;4889;48.620;7.892;2023-05-10T03:59:26;0.50;;;0.20;;
9700;SDS011;4889;48.620;7.892;2023-05-10T04:01:51;0.50;;;0.30;;
9700;SDS011;4889;48.620;7.892;2023-05-10T04:04:17;0.50;;;0.20;;
9700;SDS011;4889;48.620;7.892;2023-05-10T04:06:43;0.50;;;0.30;;
9700;SDS011;4889;48.620;7.892;2023-05-10T04:09:08;0.50;;;0.20;;
9700;SDS011;4889;48.620;7.892;2023-05-10T04:11:34;0.50;;;0.20;;
9700;SDS011;4889;48.620;7.892;2023-05-10T04:13:59;0.50;;;0.20;;
9700;SDS011;4889;48.620;7.892;2023-05-10T04:16:24;0.50;;;0.20;;
9700;SDS011;4889;48.620;7.892;2023-05-10T04:18:49;0.50;;;0.20;;
9700;SDS011;4889;48.620;7.892;2023-05-10T04:21:15;0.63;;;0.60;;
9700;SDS011;4889;48.620;7.892;2023-05-10T04:23:40;0.50;;;0.30;;
9700;SDS011;4889;48.620;7.892;2023-05-10T04:26:06;1.33;;;0.80;;
9700;SDS011;4889;48.620;7.892;2023-05-10T04:28:31;0.50;;;0.20;;
9700;SDS011;4889;48.620;7.892;2023-05-10T04:33:28;0.50;;;0.20;;
9700;SDS011;4889;48.620;7.892;2023-05-10T04:35:53;0.50;;;0.20;;
9700;SDS011;4889;48.620;7.892;2023-05-10T04:38:18;0.50;;;0.20;;
9700;SDS011;4889;48.620;7.892;2023-05-10T04:40:43;0.70;;;0.70;;
9700;SDS011;4889;48.620;7.892;2023-05-10T04:43:08;0.60;;;0.50;;
9700;SDS011;4889;48.620;7.892;2023-05-10T04:45:34;2.00;;;0.73;;
9700;SDS011;4889;48.620;7.892;2023-05-10T04:47:59;0.50;;;0.20;;
9700;SDS011;4889;48.620;7.892;2023-05-10T04:50:24;0.50;;;0.20;;
9700;SDS011;4889;48.620;7.892;2023-05-10T04:52:49;2.87;;;0.57;;
9700;SDS011;4889;48.620;7.892;2023-05-10T04:55:15;0.50;;;0.30;;
9700;SDS011;4889;48.620;7.892;2023-05-10T04:57:40;0.50;;;0.20;;
9700;SDS011;4889;48.620;7.892;2023-05-10T05:00:05;0.50;;;0.30;;
9700;SDS011;4889;48.620;7.892;2023-05-10T05:02:31;0.50;;;0.30;;
9700;SDS011;4889;48.620;7.892;2023-05-10T05:04:56;0.50;;;0.30;;
9700;SDS011;4889;48.620;7.892;2023-05-10T05:07:22;2.00;;;1.33;;
9700;SDS011;4889;48.620;7.892;2023-05-10T05:09:48;0.70;;;0.60;;
9700;SDS011;4889;48.620;7.892;2023-05-10T05:12:13;0.77;;;0.37;;
9700;SDS011;4889;48.620;7.892;2023-05-10T05:14:39;2.30;;;0.83;;
9700;SDS011;4889;48.620;7.892;2023-05-10T05:17:04;0.50;;;0.20;;
9700;SDS011;4889;48.620;7.892;2023-05-10T05:19:30;1.17;;;0.43;;
9700;SDS011;4889;48.620;7.892;2023-05-10T05:21:56;1.07;;;0.73;;
9700;SDS011;4889;48.620;7.892;2023-05-10T05:24:21;0.70;;;0.40;;
9700;SDS011;4889;48.620;7.892;2023-05-10T05:26:46;0.50;;;0.30;;
9700;SDS011;4889;48.620;7.892;2023-05-10T05:29:12;0.50;;;0.20;;
9700;SDS011;4889;48.620;7.892;2023-05-10T05:31:37;0.50;;;0.20;;
9700;SDS011;4889;48.620;7.892;2023-05-10T05:34:02;0.50;;;0.20;;
9700;SDS011;4889;48.620;7.892;2023-05-10T05:36:27;0.50;;;0.20;;
9700;SDS011;4889;48.620;7.892;2023-05-10T05:38:53;0.50;;;0.30;;
9700;SDS011;4889;48.620;7.892;2023-05-10T05:41:18;0.50;;;0.20;;
9700;SDS011;4889;48.620;7.892;2023-05-10T05:43:43;0.50;;;0.20;;
9700;SDS011;4889;48.620;7.892;2023-05-10T05:46:08;0.50;;;0.30;;
9700;SDS011;4889;48.620;7.892;2023-05-10T05:48:33;0.50;;;0.20;;
9700;SDS011;4889;48.620;7.892;2023-05-10T05:50:59;0.50;;;0.30;;
9700;SDS011;4889;48.620;7.892;2023-05-10T05:53:24;0.50;;;0.30;;
9700;SDS011;4889;48.620;7.892;2023-05-10T05:55:50;0.50;;;0.27;;
9700;SDS011;4889;48.620;7.892;2023-05-10T05:58:16;0.50;;;0.20;;
9700;SDS011;4889;48.620;7.892;2023-05-10T06:00:41;0.60;;;0.40;;
9700;SDS011;4889;48.620;7.892;2023-05-10T06:03:06;0.50;;;0.30;;
9700;SDS011;4889;48.620;7.892;2023-05-10T06:05:32;1.47;;;0.40;;
9700;SDS011;4889;48.620;7.892;2023-05-10T06:07:59;0.60;;;0.30;;
9700;SDS011;4889;48.620;7.892;2023-05-10T06:10:24;0.80;;;0.30;;
9700;SDS011;4889;48.620;7.892;2023-05-10T06:12:50;0.60;;;0.40;;
9700;SDS011;4889;48.620;7.892;2023-05-10T06:15:15;0.50;;;0.30;;
9700;SDS011;4889;48.620;7.892;2023-05-10T06:17:41;0.50;;;0.30;;
9700;SDS011;4889;48.620;7.892;2023-05-10T06:20:08;0.50;;;0.20;;
9700;SDS011;4889;48.620;7.892;2023-05-10T06:22:33;0.80;;;0.40;;
9700;SDS011;4889;48.620;7.892;2023-05-10T06:24:59;9.93;;;3.70;;
9700;SDS011;4889;48.620;7.892;2023-05-10T06:27:24;0.57;;;0.27;;
9700;SDS011;4889;48.620;7.892;2023-05-10T06:29:49;1.27;;;0.30;;
9700;SDS011;4889;48.620;7.892;2023-05-10T06:32:14;1.43;;;0.40;;
9700;SDS011;4889;48.620;7.892;2023-05-10T06:34:39;0.50;;;0.20;;
9700;SDS011;4889;48.620;7.892;2023-05-10T06:37:05;0.80;;;0.50;;
9700;SDS011;4889;48.620;7.892;2023-05-10T06:39:30;0.50;;;0.20;;
9700;SDS011;4889;48.620;7.892;2023-05-10T06:41:55;0.60;;;0.33;;
9700;SDS011;4889;48.620;7.892;2023-05-10T06:44:20;0.50;;;0.20;;
9700;SDS011;4889;48.620;7.892;2023-05-10T06:46:46;0.50;;;0.30;;
9700;SDS011;4889;48.620;7.892;2023-05-10T06:49:11;5.30;;;1.67;;
9700;SDS011;4889;48.620;7.892;2023-05-10T06:51:37;0.50;;;0.30;;
9700;SDS011;4889;48.620;7.892;2023-05-10T06:54:02;0.50;;;0.20;;
9700;SDS011;4889;48.620;7.892;2023-05-10T06:56:28;0.50;;;0.20;;
9700;SDS011;4889;48.620;7.892;2023-05-10T06:58:53;0.50;;;0.20;;
9700;SDS011;4889;48.620;7.892;2023-05-10T07:01:18;0.50;;;0.20;;
9700;SDS011;4889;48.620;7.892;2023-05-10T07:03:44;0.50;;;0.30;;
9700;SDS011;4889;48.620;7.892;2023-05-10T07:06:09;0.60;;;0.43;;
9700;SDS011;4889;48.620;7.892;2023-05-10T07:08:35;0.50;;;0.20;;
9700;SDS011;4889;48.620;7.892;2023-05-10T07:11:04;0.50;;;0.20;;
9700;SDS011;4889;48.620;7.892;2023-05-10T07:13:30;0.50;;;0.20;;
9700;SDS011;4889;48.620;7.892;2023-05-10T07:15:56;0.50;;;0.20;;
9700;SDS011;4889;48.620;7.892;2023-05-10T07:18:21;0.50;;;0.20;;
9700;SDS011;4889;48.620;7.892;2023-05-10T07:20:46;0.50;;;0.20;;
9700;SDS011;4889;48.620;7.892;2023-05-10T07:23:11;0.50;;;0.30;;
9700;SDS011;4889;48.620;7.892;2023-05-10T07:25:37;0.50;;;0.20;;
9700;SDS011;4889;48.620;7.892;2023-05-10T07:28:02;0.60;;;0.40;;
9700;SDS011;4889;48.620;7.892;2023-05-10T07:30:28;0.50;;;0.20;;
9700;SDS011;4889;48.620;7.892;2023-05-10T07:32:53;0.50;;;0.20;;
9700;SDS011;4889;48.620;7.892;2023-05-10T07:35:18;0.50;;;0.20;;
9700;SDS011;4889;48.620;7.892;2023-05-10T07:37:43;0.50;;;0.20;;
9700;SDS011;4889;48.620;7.892;2023-05-10T07:40:09;0.50;;;0.20;;
9700;SDS011;4889;48.620;7.892;2023-05-10T07:42:34;0.50;;;0.20;;
9700;SDS011;4889;48.620;7.892;2023-05-10T07:44:59;0.50;;;0.20;;
9700;SDS011;4889;48.620;7.892;2023-05-10T07:47:25;0.50;;;0.20;;
9700;SDS011;4889;48.620;7.892;2023-05-10T07:49:50;0.50;;;0.20;;
9700;SDS011;4889;48.620;7.892;2023-05-10T07:52:16;0.50;;;0.20;;
9700;SDS011;4889;48.620;7.892;2023-05-10T07:54:41;0.50;;;0.20;;
9700;SDS011;4889;48.620;7.892;2023-05-10T07:57:06;0.50;;;0.20;;
9700;SDS011;4889;48.620;7.892;2023-05-10T07:59:31;0.50;;;0.20;;
9700;SDS011;4889;48.620;7.892;2023-05-10T08:01:58;0.50;;;0.20;;
9700;SDS011;4889;48.620;7.892;2023-05-10T08:04:23;0.80;;;0.43;;
9700;SDS011;4889;48.620;7.892;2023-05-10T08:06:49;0.50;;;0.20;;
9700;SDS011;4889;48.620;7.892;2023-05-10T08:09:15;0.50;;;0.20;;
9700;SDS011;4889;48.620;7.892;2023-05-10T08:11:40;0.50;;;0.20;;
9700;SDS011;4889;48.620;7.892;2023-05-10T08:14:06;0.50;;;0.20;;
9700;SDS011;4889;48.620;7.892;2023-05-10T08:16:31;0.50;;;0.20;;
9700;SDS011;4889;48.620;7.892;2023-05-10T08:18:57;0.50;;;0.20;;
9700;SDS011;4889;48.620;7.892;2023-05-10T08:21:22;0.60;;;0.30;;
9700;SDS011;4889;48.620;7.892;2023-05-10T08:23:47;0.60;;;0.20;;
9700;SDS011;4889;48.620;7.892;2023-05-10T08:26:13;0.50;;;0.20;;
9700;SDS011;4889;48.620;7.892;2023-05-10T08:28:39;0.50;;;0.20;;
9700;SDS011;4889;48.620;7.892;2023-05-10T08:31:04;0.50;;;0.20;;
9700;SDS011;4889;48.620;7.892;2023-05-10T08:33:29;0.53;;;0.20;;
9700;SDS011;4889;48.620;7.892;2023-05-10T08:35:55;0.50;;;0.20;;
9700;SDS011;4889;48.620;7.892;2023-05-10T08:38:20;0.77;;;0.53;;
9700;SDS011;4889;48.620;7.892;2023-05-10T08:40:45;0.50;;;0.30;;
9700;SDS011;4889;48.620;7.892;2023-05-10T08:43:12;0.50;;;0.20;;
9700;SDS011;4889;48.620;7.892;2023-05-10T08:45:41;0.50;;;0.20;;
9700;SDS011;4889;48.620;7.892;2023-05-10T08:48:08;0.50;;;0.20;;
9700;SDS011;4889;48.620;7.892;2023-05-10T08:50:35;0.57;;;0.27;;
9700;SDS011;4889;48.620;7.892;2023-05-10T08:53:01;0.53;;;0.30;;
9700;SDS011;4889;48.620;7.892;2023-05-10T08:55:28;0.50;;;0.20;;
9700;SDS011;4889;48.620;7.892;2023-05-10T08:57:54;0.60;;;0.30;;
9700;SDS011;4889;48.620;7.892;2023-05-10T09:00:19;0.50;;;0.20;;
9700;SDS011;4889;48.620;7.892;2023-05-10T09:02:45;0.60;;;0.30;;
9700;SDS011;4889;48.620;7.892;2023-05-10T09:05:13;0.50;;;0.20;;
9700;SDS011;4889;48.620;7.892;2023-05-10T09:07:40;0.57;;;0.30;;
9700;SDS011;4889;48.620;7.892;2023-05-10T09:10:06;0.50;;;0.20;;
9700;SDS011;4889;48.620;7.892;2023-05-10T09:12:32;0.50;;;0.20;;
9700;SDS011;4889;48.620;7.892;2023-05-10T09:14:57;0.70;;;0.60;;
9700;SDS011;4889;48.620;7.892;2023-05-10T09:17:24;0.50;;;0.20;;
9700;SDS011;4889;48.620;7.892;2023-05-10T09:19:50;0.50;;;0.30;;
9700;SDS011;4889;48.620;7.892;2023-05-10T09:22:15;0.50;;;0.20;;
9700;SDS011;4889;48.620;7.892;2023-05-10T09:24:42;0.60;;;0.30;;
9700;SDS011;4889;48.620;7.892;2023-05-10T09:27:10;0.60;;;0.30;;
9700;SDS011;4889;48.620;7.892;2023-05-10T09:29:38;0.60;;;0.20;;
9700;SDS011;4889;48.620;7.892;2023-05-10T09:32:04;0.60;;;0.20;;
9700;SDS011;4889;48.620;7.892;2023-05-10T09:34:30;0.60;;;0.20;;
9700;SDS011;4889;48.620;7.892;2023-05-10T09:36:59;0.60;;;0.20;;
9700;SDS011;4889;48.620;7.892;2023-05-10T09:39:29;0.80;;;0.70;;
9700;SDS011;4889;48.620;7.892;2023-05-10T09:41:55;0.60;;;0.30;;
9700;SDS011;4889;48.620;7.892;2023-05-10T09:44:20;0.60;;;0.30;;
9700;SDS011;4889;48.620;7.892;2023-05-10T09:46:49;0.60;;;0.30;;
9700;SDS011;4889;48.620;7.892;2023-05-10T09:49:14;0.60;;;0.30;;
9700;SDS011;4889;48.620;7.892;2023-05-10T09:51:39;0.60;;;0.30;;
9700;SDS011;4889;48.620;7.892;2023-05-10T09:54:08;0.60;;;0.30;;
9700;SDS011;4889;48.620;7.892;2023-05-10T09:56:34;0.60;;;0.30;;
9700;SDS011;4889;48.620;7.892;2023-05-10T09:59:04;0.60;;;0.20;;
9700;SDS011;4889;48.620;7.892;2023-05-10T10:01:29;0.60;;;0.30;;
9700;SDS011;4889;48.620;7.892;2023-05-10T10:03:55;0.60;;;0.30;;
9700;SDS011;4889;48.620;7.892;2023-05-10T10:06:22;0.60;;;0.30;;
9700;SDS011;4889;48.620;7.892;2023-05-10T10:08:49;0.60;;;0.30;;
9700;SDS011;4889;48.620;7.892;2023-05-10T10:11:18;0.60;;;0.30;;
9700;SDS011;4889;48.620;7.892;2023-05-10T10:13:43;0.60;;;0.30;;
9700;SDS011;4889;48.620;7.892;2023-05-10T10:16:08;0.80;;;0.60;;
9700;SDS011;4889;48.620;7.892;2023-05-10T10:18:34;0.60;;;0.30;;
9700;SDS011;4889;48.620;7.892;2023-05-10T10:21:03;0.60;;;0.27;;
9700;SDS011;4889;48.620;7.892;2023-05-10T10:23:29;0.60;;;0.20;;
9700;SDS011;4889;48.620;7.892;2023-05-10T10:25:55;0.70;;;0.60;;
9700;SDS011;4889;48.620;7.892;2023-05-10T10:28:29;0.60;;;0.30;;
9700;SDS011;4889;48.620;7.892;2023-05-10T10:30:54;0.60;;;0.20;;
9700;SDS011;4889;48.620;7.892;2023-05-10T10:35:46;0.60;;;0.30;;
9700;SDS011;4889;48.620;7.892;2023-05-10T10:38:14;0.60;;;0.20;;
9700;SDS011;4889;48.620;7.892;2023-05-10T10:40:40;1.33;;;0.40;;
9700;SDS011;4889;48.620;7.892;2023-05-10T10:45:48;0.60;;;0.30;;
9700;SDS011;4889;48.620;7.892;2023-05-10T10:48:31;0.70;;;0.33;;
9700;SDS011;4889;48.620;7.892;2023-05-10T10:50:57;0.90;;;0.80;;
9700;SDS011;4889;48.620;7.892;2023-05-10T10:53:25;0.70;;;0.30;;
9700;SDS011;4889;48.620;7.892;2023-05-10T10:55:55;0.73;;;0.43;;
9700;SDS011;4889;48.620;7.892;2023-05-10T10:58:30;0.70;;;0.30;;
9700;SDS011;4889;48.620;7.892;2023-05-10T11:01:08;0.80;;;0.30;;
9700;SDS011;4889;48.620;7.892;2023-05-10T11:03:34;0.70;;;0.30;;
9700;SDS011;4889;48.620;7.892;2023-05-10T11:06:00;0.70;;;0.27;;
9700;SDS011;4889;48.620;7.892;2023-05-10T11:08:33;0.70;;;0.30;;
9700;SDS011;4889;48.620;7.892;2023-05-10T11:15:59;2.37;;;0.30;;
9700;SDS011;4889;48.620;7.892;2023-05-10T11:18:35;3.20;;;0.30;;
9700;SDS011;4889;48.620;7.892;2023-05-10T11:21:02;3.20;;;0.30;;
9700;SDS011;4889;48.620;7.892;2023-05-10T11:23:47;3.73;;;0.30;;
9700;SDS011;4889;48.620;7.892;2023-05-10T11:26:12;4.13;;;0.30;;
9700;SDS011;4889;48.620;7.892;2023-05-10T11:28:45;3.73;;;0.30;;
9700;SDS011;4889;48.620;7.892;2023-05-10T11:31:11;4.28;;;0.50;;
9700;SDS011;4889;48.620;7.892;2023-05-10T11:33:50;4.20;;;0.30;;
9700;SDS011;4889;48.620;7.892;2023-05-10T11:36:21;3.67;;;0.30;;
9700;SDS011;4889;48.620;7.892;2023-05-10T11:38:46;3.70;;;0.30;;
9700;SDS011;4889;48.620;7.892;2023-05-10T11:41:12;3.78;;;0.30;;
9700;SDS011;4889;48.620;7.892;2023-05-10T11:43:40;3.80;;;0.30;;
9700;SDS011;4889;48.620;7.892;2023-05-10T11:46:07;3.80;;;0.30;;
9700;SDS011;4889;48.620;7.892;2023-05-10T11:48:32;4.38;;;0.60;;
9700;SDS011;4889;48.620;7.892;2023-05-10T11:50:58;3.80;;;0.30;;
9700;SDS011;4889;48.620;7.892;2023-05-10T11:53:25;3.58;;;0.30;;
9700;SDS011;4889;48.620;7.892;2023-05-10T11:55:50;3.60;;;0.30;;
9700;SDS011;4889;48.620;7.892;2023-05-10T11:58:17;3.70;;;0.30;;
9700;SDS011;4889;48.620;7.892;2023-05-10T12:00:42;3.70;;;0.30;;
9700;SDS011;4889;48.620;7.892;2023-05-10T12:03:08;3.70;;;0.40;;
9700;SDS011;4889;48.620;7.892;2023-05-10T12:05:33;3.80;;;0.30;;
9700;SDS011;4889;48.620;7.892;2023-05-10T12:08:12;3.87;;;0.30;;
9700;SDS011;4889;48.620;7.892;2023-05-10T12:10:37;3.80;;;0.30;;
9700;SDS011;4889;48.620;7.892;2023-05-10T12:13:02;4.10;;;0.30;;
9700;SDS011;4889;48.620;7.892;2023-05-10T12:15:28;4.23;;;0.30;;
9700;SDS011;4889;48.620;7.892;2023-05-10T12:17:53;4.27;;;0.30;;
9700;SDS011;4889;48.620;7.892;2023-05-10T12:22:51;4.10;;;0.30;;
9700;SDS011;4889;48.620;7.892;2023-05-10T12:25:19;5.47;;;0.40;;
9700;SDS011;4889;48.620;7.892;2023-05-10T12:27:51;4.10;;;0.30;;
9700;SDS011;4889;48.620;7.892;2023-05-10T12:30:20;4.83;;;0.77;;
9700;SDS011;4889;48.620;7.892;2023-05-10T12:32:46;3.93;;;0.30;;
9700;SDS011;4889;48.620;7.892;2023-05-10T12:35:11;3.90;;;0.30;;
9700;SDS011;4889;48.620;7.892;2023-05-10T12:37:36;3.90;;;0.30;;
9700;SDS011;4889;48.620;7.892;2023-05-10T12:40:07;4.00;;;0.30;;
9700;SDS011;4889;48.620;7.892;2023-05-10T12:42:33;4.00;;;0.30;;
9700;SDS011;4889;48.620;7.892;2023-05-10T12:45:18;4.03;;;0.30;;
9700;SDS011;4889;48.620;7.892;2023-05-10T12:47:44;4.07;;;0.30;;
9700;SDS011;4889;48.620;7.892;2023-05-10T12:50:09;3.90;;;0.30;;
9700;SDS011;4889;48.620;7.892;2023-05-10T12:52:35;4.03;;;0.30;;
9700;SDS011;4889;48.620;7.892;2023-05-10T12:55:00;4.40;;;0.83;;
9700;SDS011;4889;48.620;7.892;2023-05-10T12:57:26;4.10;;;0.40;;
9700;SDS011;4889;48.620;7.892;2023-05-10T12:59:51;4.20;;;0.30;;
9700;SDS011;4889;48.620;7.892;2023-05-10T13:02:16;4.23;;;0.30;;
9700;SDS011;4889;48.620;7.892;2023-05-10T13:04:46;4.10;;;0.40;;
9700;SDS011;4889;48.620;7.892;2023-05-10T13:07:12;4.20;;;0.30;;
9700;SDS011;4889;48.620;7.892;2023-05-10T13:09:37;3.83;;;0.30;;
9700;SDS011;4889;48.620;7.892;2023-05-10T13:12:02;4.00;;;0.30;;
9700;SDS011;4889;48.620;7.892;2023-05-10T13:14:28;4.17;;;0.30;;
9700;SDS011;4889;48.620;7.892;2023-05-10T13:16:54;3.90;;;0.30;;
9700;SDS011;4889;48.620;7.892;2023-05-10T13:19:19;4.20;;;0.30;;
9700;SDS011;4889;48.620;7.892;2023-05-10T13:21:44;4.10;;;0.40;;
9700;SDS011;4889;48.620;7.892;2023-05-10T13:24:10;4.27;;;0.40;;
9700;SDS011;4889;48.620;7.892;2023-05-10T13:26:35;3.90;;;0.30;;
9700;SDS011;4889;48.620;7.892;2023-05-10T13:29:01;3.75;;;0.30;;
9700;SDS011;4889;48.620;7.892;2023-05-10T13:31:26;3.78;;;0.30;;
9700;SDS011;4889;48.620;7.892;2023-05-10T13:33:51;3.75;;;0.30;;
9700;SDS011;4889;48.620;7.892;2023-05-10T13:36:17;3.80;;;0.30;;
9700;SDS011;4889;48.620;7.892;2023-05-10T13:38:42;3.75;;;0.30;;
9700;SDS011;4889;48.620;7.892;2023-05-10T13:41:07;3.60;;;0.30;;
9700;SDS011;4889;48.620;7.892;2023-05-10T13:43:32;3.80;;;0.30;;
9700;SDS011;4889;48.620;7.892;2023-05-10T13:45:57;3.67;;;0.30;;
9700;SDS011;4889;48.620;7.892;2023-05-10T13:48:23;3.70;;;0.30;;
9700;SDS011;4889;48.620;7.892;2023-05-10T13:50:48;3.60;;;0.30;;
9700;SDS011;4889;48.620;7.892;2023-05-10T13:53:13;8.98;;;0.73;;
9700;SDS011;4889;48.620;7.892;2023-05-10T13:55:39;3.50;;;0.30;;
9700;SDS011;4889;48.620;7.892;2023-05-10T13:58:04;3.60;;;0.30;;
9700;SDS011;4889;48.620;7.892;2023-05-10T14:00:29;4.10;;;0.50;;
9700;SDS011;4889;48.620;7.892;2023-05-10T14:02:55;3.70;;;0.30;;
9700;SDS011;4889;48.620;7.892;2023-05-10T14:05:20;3.80;;;0.30;;
9700;SDS011;4889;48.620;7.892;2023-05-10T14:07:46;3.90;;;0.30;;
9700;SDS011;4889;48.620;7.892;2023-05-10T14:10:11;3.87;;;0.30;;
9700;SDS011;4889;48.620;7.892;2023-05-10T14:12:36;3.80;;;0.30;;
9700;SDS011;4889;48.620;7.892;2023-05-10T14:15:02;3.80;;;0.30;;
9700;SDS011;4889;48.620;7.892;2023-05-10T14:17:27;3.93;;;0.30;;
9700;SDS011;4889;48.620;7.892;2023-05-10T14:19:53;3.97;;;0.30;;
9700;SDS011;4889;48.620;7.892;2023-05-10T14:22:18;4.10;;;0.30;;
9700;SDS011;4889;48.620;7.892;2023-05-10T14:24:43;4.10;;;0.30;;
9700;SDS011;4889;48.620;7.892;2023-05-10T14:27:11;3.90;;;0.30;;
9700;SDS011;4889;48.620;7.892;2023-05-10T14:29:38;3.80;;;0.30;;
9700;SDS011;4889;48.620;7.892;2023-05-10T14:32:03;3.80;;;0.30;;
9700;SDS011;4889;48.620;7.892;2023-05-10T14:34:28;3.90;;;0.40;;
9700;SDS011;4889;48.620;7.892;2023-05-10T14:36:53;3.80;;;0.40;;
9700;SDS011;4889;48.620;7.892;2023-05-10T14:39:19;3.80;;;0.30;;
9700;SDS011;4889;48.620;7.892;2023-05-10T14:41:44;3.80;;;0.30;;
9700;SDS011;4889;48.620;7.892;2023-05-10T14:44:10;3.97;;;0.40;;
9700;SDS011;4889;48.620;7.892;2023-05-10T14:46:35;3.87;;;0.30;;
9700;SDS011;4889;48.620;7.892;2023-05-10T14:49:01;4.10;;;0.50;;
9700;SDS011;4889;48.620;7.892;2023-05-10T14:51:26;4.17;;;0.30;;
9700;SDS011;4889;48.620;7.892;2023-05-10T14:53:51;4.27;;;0.30;;
9700;SDS011;4889;48.620;7.892;2023-05-10T14:56:16;4.30;;;0.30;;
9700;SDS011;4889;48.620;7.892;2023-05-10T14:58:41;4.27;;;0.30;;
9700;SDS011;4889;48.620;7.892;2023-05-10T15:01:07;4.20;;;0.30;;
9700;SDS011;4889;48.620;7.892;2023-05-10T15:03:32;4.13;;;0.30;;
9700;SDS011;4889;48.620;7.892;2023-05-10T15:05:57;4.10;;;0.30;;
9700;SDS011;4889;48.620;7.892;2023-05-10T15:08:23;4.10;;;0.30;;
9700;SDS011;4889;48.620;7.892;2023-05-10T15:10:49;4.13;;;0.30;;
9700;SDS011;4889;48.620;7.892;2023-05-10T15:13:14;4.20;;;0.30;;
9700;SDS011;4889;48.620;7.892;2023-05-10T15:15:40;4.20;;;0.30;;
9700;SDS011;4889;48.620;7.892;2023-05-10T15:18:05;4.17;;;0.30;;
9700;SDS011;4889;48.620;7.892;2023-05-10T15:20:30;4.30;;;0.30;;
9700;SDS011;4889;48.620;7.892;2023-05-10T15:22:55;4.10;;;0.30;;
9700;SDS011;4889;48.620;7.892;2023-05-10T15:25:21;4.17;;;0.30;;
9700;SDS011;4889;48.620;7.892;2023-05-10T15:27:46;4.13;;;0.30;;
9700;SDS011;4889;48.620;7.892;2023-05-10T15:30:11;4.10;;;0.30;;
9700;SDS011;4889;48.620;7.892;2023-05-10T15:32:37;4.17;;;0.30;;
9700;SDS011;4889;48.620;7.892;2023-05-10T15:35:04;4.10;;;0.30;;